This is the latest recevied weather packets stored in our database for station/object KF0JHJ. If no packets are shown the sender has not sent any weather packets the latest 10 day(s).
| Time | Temp. | Humidity | Pressure | Rain* | Wind** | Luminosity | Snow |
|---|---|---|---|---|---|---|---|
| 1777821896 | 17.78° C | 48% | 1005.3 hPa | - | - | 252 W/m² | - |
| 1777821593 | 17.78° C | 48% | 1005.5 hPa | - | - | 79 W/m² | - |
| 1777821291 | 17.22° C | 47% | 1005.4 hPa | - | - | 49 W/m² | - |
| 1777820988 | 17.22° C | 49% | 1005.3 hPa | - | - | 102 W/m² | - |
| 1777820685 | 16.67° C | 49% | 1005.3 hPa | - | - | 50 W/m² | - |
| 1777820380 | 16.67° C | 49% | 1005.1 hPa | - | - | 135 W/m² | - |
| 1777820078 | 16.67° C | 49% | 1005 hPa | - | - | 234 W/m² | - |
| 1777819775 | 16.67° C | 49% | 1005.2 hPa | - | - | 53 W/m² | - |
| 1777819473 | 16.11° C | 50% | 1005.1 hPa | - | - | 70 W/m² | - |
| 1777819171 | 16.11° C | 52% | 1005 hPa | - | - | 139 W/m² | - |
| 1777818867 | 16.11° C | 52% | 1005 hPa | - | - | 256 W/m² | - |
| 1777818563 | 16.11° C | 52% | 1005.1 hPa | - | - | 76 W/m² | - |
| 1777818261 | 15.56° C | 52% | 1005 hPa | - | - | 207 W/m² | - |
| 1777817957 | 15.56° C | 53% | 1005.2 hPa | - | - | 155 W/m² | - |
| 1777817654 | 15.56° C | 54% | 1005 hPa | - | - | 212 W/m² | - |
| 1777817351 | 15° C | 54% | 1005 hPa | - | - | 152 W/m² | - |
| 1777817048 | 15° C | 55% | 1004.9 hPa | - | - | 296 W/m² | - |
| 1777816743 | 15° C | 55% | 1004.7 hPa | - | - | 294 W/m² | - |
| 1777816442 | 14.44° C | 56% | 1004.8 hPa | - | - | 221 W/m² | - |
| 1777816139 | 13.89° C | 56% | 1004.8 hPa | - | - | 147 W/m² | - |
| 1777815837 | 13.89° C | 56% | 1004.6 hPa | - | - | 187 W/m² | - |
| 1777815534 | 13.89° C | 56% | 1004.7 hPa | - | - | 91 W/m² | - |
| 1777815231 | 13.89° C | 57% | 1004.4 hPa | - | - | 160 W/m² | - |
| 1777814927 | 13.33° C | 59% | 1004.6 hPa | - | - | 190 W/m² | - |
| 1777814624 | 12.78° C | 60% | 1004.4 hPa | - | - | 157 W/m² | - |
* Rain since midnight (hover to see other rain measurements)
** Current wind speed in m/s (hover to see current wind gust speed)